Time;durP1;ratioP1;P1;durP2;ratioP2;P2;SDS_P1;SDS_P2;PMS_P1;PMS_P2;Temp;Humidity;BMP_temperature;BMP_pressure;BME280_temperature;BME280_humidity;BME280_pressure;Samples;Min_cycle;Max_cycle;Signal;HPM_P1;HPM_P2
2021/12/04 00:01:16;;;;;;;11.13;4.30;;;18.60;53.40;;;;;;4990095;28;20130;-86
2021/12/04 00:03:42;;;;;;;11.75;4.07;;;19.30;53.80;;;;;;4989560;28;20131;-86
2021/12/04 00:06:23;;;;;;;10.90;4.32;;;18.60;53.40;;;;;;4990335;28;20486;-87
2021/12/04 00:09:03;;;;;;;12.65;4.80;;;18.60;53.40;;;;;;4989457;28;20057;-85
2021/12/04 00:11:29;;;;;;;11.30;4.45;;;18.60;53.50;;;;;;4989182;28;20054;-85
2021/12/04 00:13:54;;;;;;;9.00;3.40;;;18.60;53.40;;;;;;4990030;28;20058;-86
2021/12/04 00:16:20;;;;;;;10.93;4.38;;;18.60;53.40;;;;;;4989507;28;20050;-87
2021/12/04 00:18:46;;;;;;;9.65;3.70;;;19.00;53.60;;;;;;4990090;28;20047;-86
2021/12/04 00:21:11;;;;;;;10.30;3.60;;;18.60;53.40;;;;;;4989863;28;20054;-87
2021/12/04 00:23:37;;;;;;;10.63;3.83;;;18.60;53.40;;;;;;4989196;28;20498;-86
2021/12/04 00:26:04;;;;;;;9.15;3.17;;;18.60;53.40;;;;;;4990004;28;20737;-86
2021/12/04 00:28:30;;;;;;;9.32;3.50;;;18.50;53.40;;;;;;4989807;28;20105;-87
2021/12/04 00:30:56;;;;;;;8.65;3.35;;;18.60;53.40;;;;;;4989291;28;20065;-85
2021/12/04 00:33:28;;;;;;;8.23;3.33;;;18.50;53.40;;;;;;4973341;28;20161;-86
2021/12/04 00:35:59;;;;;;;;;;;19.70;54.10;;;;;;4990200;28;20690;-86
2021/12/04 00:49:18;;;;;;;8.20;2.80;;;18.50;53.40;;;;;;4989310;28;20482;-87
2021/12/04 00:51:52;;;;;;;7.70;2.58;;;18.50;53.40;;;;;;4989015;28;20627;-87
2021/12/04 00:54:18;;;;;;;8.40;3.08;;;18.50;53.40;;;;;;4989192;28;20569;-87
2021/12/04 00:56:44;;;;;;;9.07;3.08;;;18.50;53.40;;;;;;4985343;28;20066;-87
2021/12/04 00:59:10;;;;;;;7.30;2.70;;;18.50;53.40;;;;;;4988505;28;20073;-86
2021/12/04 01:01:37;;;;;;;9.10;3.00;;;18.50;53.50;;;;;;4989406;28;20520;-86
2021/12/04 01:04:03;;;;;;;7.78;3.00;;;18.50;53.50;;;;;;4989078;28;20109;-86
2021/12/04 01:06:28;;;;;;;7.65;2.65;;;18.50;53.40;;;;;;4987716;28;20057;-86
2021/12/04 01:08:54;;;;;;;7.43;2.53;;;18.50;53.40;;;;;;4989083;28;20121;-86
2021/12/04 01:11:20;;;;;;;8.20;2.78;;;18.50;53.40;;;;;;4988950;28;20042;-86
2021/12/04 01:13:45;;;;;;;7.22;2.40;;;18.50;53.40;;;;;;4988451;28;20073;-87
2021/12/04 01:16:11;;;;;;;7.47;2.95;;;18.50;53.50;;;;;;4988960;28;20054;-87
2021/12/04 01:18:38;;;;;;;6.53;2.17;;;18.50;53.50;;;;;;4988993;28;20049;-86
2021/12/04 01:21:03;;;;;;;6.95;2.20;;;18.50;53.50;;;;;;4988718;28;20058;-86
2021/12/04 01:23:29;;;;;;;8.20;3.22;;;18.50;53.50;;;;;;4989632;28;20046;-87
2021/12/04 01:25:54;;;;;;;7.97;2.67;;;18.50;53.40;;;;;;4988963;28;20051;-87
2021/12/04 01:28:20;;;;;;;6.00;2.15;;;18.50;53.40;;;;;;4987895;28;20596;-86
2021/12/04 01:30:45;;;;;;;4.90;1.70;;;19.30;53.90;;;;;;4988874;28;20046;-86
2021/12/04 01:33:11;;;;;;;7.40;2.67;;;18.50;53.40;;;;;;4988947;28;20054;-87
2021/12/04 01:35:37;;;;;;;5.68;2.05;;;18.50;53.40;;;;;;4989452;28;20061;-86
2021/12/04 01:38:02;;;;;;;5.00;2.05;;;18.50;53.50;;;;;;4988759;28;20039;-86
2021/12/04 01:40:28;;;;;;;8.60;2.60;;;18.50;53.50;;;;;;4989031;28;20049;-87
2021/12/04 01:42:53;;;;;;;6.53;2.15;;;18.50;53.50;;;;;;4988423;28;20058;-88
2021/12/04 01:45:19;;;;;;;7.75;1.80;;;18.50;53.40;;;;;;4989078;28;20058;-86
2021/12/04 01:47:45;;;;;;;6.93;2.28;;;18.50;53.40;;;;;;4987874;28;20588;-85
2021/12/04 01:50:10;;;;;;;6.57;1.85;;;18.50;53.50;;;;;;4989092;28;20050;-86
2021/12/04 01:52:36;;;;;;;6.40;2.47;;;18.50;53.50;;;;;;4970968;28;20054;-86
2021/12/04 01:55:02;;;;;;;5.50;1.73;;;18.50;53.50;;;;;;4987916;28;20038;-86
2021/12/04 01:57:27;;;;;;;6.28;2.08;;;18.50;54.20;;;;;;4988754;28;20472;-87
2021/12/04 01:59:53;;;;;;;6.40;1.80;;;18.50;53.50;;;;;;4972598;28;20062;-87
2021/12/04 02:02:19;;;;;;;6.38;1.83;;;18.50;53.50;;;;;;4988206;28;20043;-87
2021/12/04 02:04:45;;;;;;;4.50;1.38;;;18.50;53.50;;;;;;4989137;28;20096;-88
2021/12/04 02:07:12;;;;;;;5.53;1.92;;;18.50;53.50;;;;;;4988560;28;20050;-88
2021/12/04 02:09:37;;;;;;;5.38;1.75;;;18.50;53.50;;;;;;4987682;28;20051;-87
2021/12/04 02:12:05;;;;;;;5.50;1.73;;;18.60;53.50;;;;;;4988653;28;20054;-87
2021/12/04 02:14:35;;;;;;;4.85;1.38;;;18.60;53.50;;;;;;4988468;28;20050;-87
2021/12/04 02:17:01;;;;;;;4.15;1.30;;;18.50;53.50;;;;;;4988140;28;20060;-87
2021/12/04 02:19:27;;;;;;;5.50;1.50;;;18.60;53.50;;;;;;4991275;28;20160;-87
2021/12/04 02:21:52;;;;;;;5.57;1.83;;;18.50;53.40;;;;;;4991888;28;20057;-87
2021/12/04 02:24:18;;;;;;;4.00;1.20;;;18.50;53.40;;;;;;4991915;28;20054;-87
2021/12/04 02:26:45;;;;;;;5.68;1.50;;;18.60;53.50;;;;;;4992168;28;20057;-87
2021/12/04 02:29:10;;;;;;;4.20;1.20;;;18.60;53.50;;;;;;4975603;28;20117;-87
2021/12/04 02:31:36;;;;;;;4.47;1.50;;;18.60;53.50;;;;;;4991084;28;20466;-87
2021/12/04 02:34:02;;;;;;;4.72;1.45;;;18.60;53.50;;;;;;4991858;28;20046;-89
2021/12/04 02:36:28;;;;;;;5.05;1.42;;;18.50;53.50;;;;;;4989992;28;20062;-88
2021/12/04 02:38:53;;;;;;;4.25;1.40;;;18.60;53.50;;;;;;4991265;28;20058;-86
2021/12/04 02:41:19;;;;;;;3.60;1.02;;;18.60;53.50;;;;;;4992171;28;20490;-87
2021/12/04 02:43:45;;;;;;;3.90;1.30;;;18.60;53.50;;;;;;4991752;28;20046;-87
2021/12/04 02:46:12;;;;;;;3.53;1.13;;;18.60;53.50;;;;;;4991013;28;20476;-88
2021/12/04 02:48:37;;;;;;;3.78;1.38;;;18.60;53.50;;;;;;4991760;28;20042;-87
2021/12/04 02:51:03;;;;;;;3.17;0.90;;;18.60;53.50;;;;;;4991003;28;20097;-87
2021/12/04 02:53:28;;;;;;;4.53;1.25;;;18.60;53.50;;;;;;4991676;28;20424;-86
2021/12/04 02:55:54;;;;;;;3.80;1.00;;;18.60;53.50;;;;;;4991806;28;20045;-86
2021/12/04 02:58:20;;;;;;;3.55;1.00;;;18.60;53.50;;;;;;4988614;28;20050;-87
2021/12/04 03:00:48;;;;;;;3.10;1.10;;;18.60;53.50;;;;;;4991409;28;20760;-85
2021/12/04 03:03:17;;;;;;;3.17;1.00;;;18.60;53.50;;;;;;4991320;28;20085;-85
2021/12/04 03:05:45;;;;;;;3.13;1.08;;;18.60;53.50;;;;;;4990759;28;20399;-86
2021/12/04 03:08:10;;;;;;;3.42;1.00;;;18.60;53.50;;;;;;4991096;28;20050;-86
2021/12/04 03:10:36;;;;;;;3.05;0.93;;;18.60;53.50;;;;;;4991047;28;20133;-86
2021/12/04 03:13:04;;;;;;;3.75;1.02;;;18.60;53.50;;;;;;4990112;28;20167;-86
2021/12/04 03:15:30;;;;;;;3.38;0.85;;;18.60;53.50;;;;;;4991104;28;20494;-86
2021/12/04 03:17:55;;;;;;;2.88;0.88;;;18.60;53.50;;;;;;4991123;28;20096;-86
2021/12/04 03:20:21;;;;;;;3.55;1.00;;;18.60;53.50;;;;;;4987821;28;20120;-86
2021/12/04 03:22:48;;;;;;;2.58;0.77;;;18.60;53.50;;;;;;4991333;28;20042;-86
2021/12/04 03:25:17;;;;;;;3.50;1.00;;;18.60;53.50;;;;;;4993691;28;20062;-87
2021/12/04 03:27:46;;;;;;;3.55;1.10;;;18.60;53.50;;;;;;4991588;28;20069;-87
2021/12/04 03:30:26;;;;;;;3.72;1.08;;;18.60;53.50;;;;;;4989995;28;20054;-87
2021/12/04 03:35:16;;;;;;;3.30;0.82;;;18.60;53.50;;;;;;4991148;28;20054;-87
2021/12/04 03:40:56;;;;;;;2.83;1.00;;;18.60;53.50;;;;;;4990027;28;20162;-86
2021/12/04 03:43:21;;;;;;;2.45;0.80;;;18.60;53.50;;;;;;4990564;28;20137;-86
2021/12/04 03:45:53;;;;;;;4.25;1.02;;;18.60;53.50;;;;;;4990335;28;20129;-86
2021/12/04 03:50:56;;;;;;;3.45;0.88;;;18.60;53.50;;;;;;4990298;28;20052;-87
2021/12/04 03:53:21;;;;;;;3.05;0.80;;;18.70;53.50;;;;;;4990601;28;20047;-86
2021/12/04 03:55:47;;;;;;;1.80;0.60;;;18.60;53.50;;;;;;4965566;28;20050;-86
2021/12/04 03:58:12;;;;;;;1.90;0.52;;;18.60;53.50;;;;;;4990330;28;20038;-86
2021/12/04 04:00:38;;;;;;;3.13;0.80;;;18.60;53.50;;;;;;4990414;28;20053;-87
2021/12/04 04:03:03;;;;;;;2.47;0.77;;;18.60;53.50;;;;;;4989406;28;20418;-86
2021/12/04 04:05:29;;;;;;;2.20;0.70;;;18.70;53.50;;;;;;4973990;28;20109;-85
2021/12/04 04:07:55;;;;;;;2.78;0.70;;;18.60;53.50;;;;;;4990261;28;20054;-87
2021/12/04 04:10:21;;;;;;;2.88;0.70;;;18.60;53.50;;;;;;5019332;28;20060;-87
2021/12/04 04:12:47;;;;;;;2.45;0.82;;;18.70;53.50;;;;;;5029334;28;20053;-88
2021/12/04 04:15:13;;;;;;;2.97;0.70;;;18.60;53.50;;;;;;5030047;28;20429;-89
2021/12/04 04:17:42;;;;;;;3.25;0.90;;;18.60;53.50;;;;;;5029240;28;20057;-87
2021/12/04 04:20:16;;;;;;;2.15;0.60;;;18.70;53.50;;;;;;5029006;28;20053;-87
2021/12/04 04:22:42;;;;;;;1.40;0.50;;;18.70;53.50;;;;;;5028285;28;20672;-87
2021/12/04 04:25:08;;;;;;;2.05;0.55;;;18.70;53.60;;;;;;5028974;28;20046;-87
2021/12/04 04:27:34;;;;;;;2.30;0.60;;;18.60;53.50;;;;;;5031164;28;20049;-85
2021/12/04 04:29:59;;;;;;;1.45;0.50;;;18.80;53.60;;;;;;5031110;28;20053;-86
2021/12/04 04:32:25;;;;;;;1.15;0.45;;;18.70;53.60;;;;;;5028990;28;20140;-87
2021/12/04 04:34:54;;;;;;;2.25;0.50;;;18.60;53.50;;;;;;5029152;28;20055;-87
2021/12/04 04:59:52;;;;;;;1.55;0.38;;;18.70;53.50;;;;;;5008112;28;20046;-87
2021/12/04 05:02:27;;;;;;;2.43;0.63;;;18.70;53.50;;;;;;5009421;28;20046;-87
2021/12/04 05:12:54;;;;;;;1.15;0.30;;;18.70;53.50;;;;;;4992771;28;20054;-87
2021/12/04 05:16:28;;;;;;;1.40;0.50;;;19.00;53.70;;;;;;5008541;28;20054;-87
2021/12/04 05:21:03;;;;;;;1.45;0.45;;;18.70;53.50;;;;;;5008145;28;20057;-87
2021/12/04 05:23:30;;;;;;;1.25;0.40;;;18.70;53.50;;;;;;5008677;28;20065;-87
2021/12/04 05:25:55;;;;;;;1.65;0.50;;;18.70;53.50;;;;;;5011192;28;20085;-87
2021/12/04 05:28:21;;;;;;;1.08;0.30;;;18.70;53.50;;;;;;5008852;28;20155;-87
2021/12/04 05:30:46;;;;;;;1.58;0.30;;;18.70;53.50;;;;;;5008820;28;20821;-87
2021/12/04 05:33:12;;;;;;;1.27;0.38;;;19.20;53.80;;;;;;5008284;28;20038;-87
2021/12/04 05:35:38;;;;;;;0.90;0.30;;;19.00;53.70;;;;;;4991080;28;20065;-88
2021/12/04 05:38:04;;;;;;;2.30;0.57;;;18.80;53.60;;;;;;5008204;28;20456;-87
2021/12/04 05:40:29;;;;;;;1.70;0.40;;;18.80;53.60;;;;;;5008080;28;20045;-86
2021/12/04 05:43:01;;;;;;;1.45;0.40;;;18.80;54.30;;;;;;5008315;28;20153;-86
2021/12/04 05:45:27;;;;;;;1.05;0.30;;;18.80;53.60;;;;;;5008765;28;20184;-86
2021/12/04 05:48:02;;;;;;;0.93;0.30;;;18.80;53.60;;;;;;5001644;28;20543;-86
2021/12/04 05:56:02;;;;;;;1.42;0.47;;;18.80;53.60;;;;;;5011634;28;20106;-88
2021/12/04 05:58:30;;;;;;;1.30;0.50;;;18.80;53.60;;;;;;5012155;28;20509;-87
2021/12/04 06:00:57;;;;;;;1.15;0.30;;;18.80;53.60;;;;;;5011106;28;20065;-86
2021/12/04 06:03:23;;;;;;;0.85;0.30;;;19.90;54.20;;;;;;4830165;28;5082252;-86
2021/12/04 06:05:49;;;;;;;1.05;0.30;;;18.80;53.50;;;;;;5012686;28;20076;-86
2021/12/04 06:08:15;;;;;;;1.15;0.30;;;18.90;53.60;;;;;;5012142;28;20071;-86
2021/12/04 06:10:40;;;;;;;1.90;0.30;;;18.80;53.60;;;;;;5012074;28;20050;-86
2021/12/04 06:13:06;;;;;;;1.55;0.38;;;18.90;53.60;;;;;;5011856;28;20598;-87
2021/12/04 06:15:32;;;;;;;1.25;0.40;;;18.90;53.60;;;;;;5010705;28;20045;-87
2021/12/04 06:17:57;;;;;;;0.93;0.20;;;18.90;53.60;;;;;;5012263;28;20485;-87
2021/12/04 06:23:07;;;;;;;0.95;0.30;;;18.90;53.60;;;;;;5012108;28;20054;-91
2021/12/04 06:25:33;;;;;;;0.93;0.20;;;18.90;53.60;;;;;;5014347;28;20050;-89
2021/12/04 06:27:58;;;;;;;0.60;0.20;;;18.90;53.60;;;;;;5012006;28;20532;-89
2021/12/04 06:30:25;;;;;;;1.23;0.30;;;18.90;53.60;;;;;;4971289;28;20061;-88
2021/12/04 06:32:52;;;;;;;0.45;0.20;;;18.90;53.60;;;;;;5002920;28;20496;-88
2021/12/04 06:35:18;;;;;;;1.38;0.20;;;18.90;53.60;;;;;;5009382;28;20044;-90
2021/12/04 06:37:44;;;;;;;0.70;0.30;;;18.90;53.50;;;;;;4994891;28;20050;-89
2021/12/04 06:40:11;;;;;;;1.17;0.35;;;18.90;53.60;;;;;;5011373;28;20093;-90
2021/12/04 06:42:37;;;;;;;0.75;0.25;;;18.90;53.60;;;;;;5011353;28;20042;-89
2021/12/04 06:45:04;;;;;;;0.57;0.20;;;18.90;53.60;;;;;;5011160;28;20044;-89
2021/12/04 06:47:31;;;;;;;0.93;0.20;;;18.90;53.50;;;;;;5011582;28;20162;-90
2021/12/04 06:50:03;;;;;;;0.70;0.20;;;18.90;53.60;;;;;;5011191;28;20050;-89
2021/12/04 06:52:29;;;;;;;1.98;0.30;;;18.90;53.60;;;;;;5011628;28;20085;-89
2021/12/04 06:55:00;;;;;;;0.55;0.10;;;18.90;53.50;;;;;;5011263;28;20038;-89
2021/12/04 06:57:27;;;;;;;1.02;0.22;;;19.00;53.60;;;;;;5008697;28;20189;-90
2021/12/04 06:59:55;;;;;;;0.95;0.30;;;19.00;53.60;;;;;;5011446;28;20497;-89
2021/12/04 07:02:20;;;;;;;0.60;0.20;;;19.00;53.60;;;;;;5010923;28;20420;-90
2021/12/04 07:04:46;;;;;;;0.57;0.30;;;19.00;53.60;;;;;;5002357;28;20065;-91
2021/12/04 07:07:12;;;;;;;0.35;0.20;;;19.00;53.60;;;;;;5011769;28;20057;-88
2021/12/04 07:09:38;;;;;;;0.40;0.10;;;19.00;53.60;;;;;;5011403;28;20046;-89
2021/12/04 07:12:04;;;;;;;0.70;0.20;;;19.60;53.90;;;;;;5011013;28;20057;-87
2021/12/04 07:14:30;;;;;;;1.02;0.20;;;19.00;53.60;;;;;;5013934;28;20434;-88
2021/12/04 07:16:56;;;;;;;0.40;0.15;;;19.00;53.60;;;;;;5001367;28;20105;-89
2021/12/04 07:19:22;;;;;;;0.52;0.10;;;19.00;53.60;;;;;;4998820;28;20057;-90
2021/12/04 07:21:47;;;;;;;0.85;0.30;;;19.00;53.60;;;;;;5011656;28;20050;-89
2021/12/04 07:24:13;;;;;;;0.20;0.10;;;19.00;53.60;;;;;;5011301;28;20464;-90
2021/12/04 07:26:39;;;;;;;0.52;0.22;;;19.00;53.60;;;;;;5011012;28;20054;-84
2021/12/04 07:29:04;;;;;;;0.20;0.10;;;19.00;53.60;;;;;;5010319;28;20456;-85
2021/12/04 07:31:30;;;;;;;0.75;0.28;;;19.00;53.60;;;;;;5011382;28;20045;-87
2021/12/04 07:33:56;;;;;;;0.90;0.20;;;19.10;53.60;;;;;;5009941;28;20046;-87
2021/12/04 07:36:22;;;;;;;0.55;0.10;;;19.00;53.60;;;;;;5011723;28;20115;-89
2021/12/04 07:38:48;;;;;;;0.63;0.20;;;19.00;53.60;;;;;;5012289;28;20057;-89
2021/12/04 07:41:14;;;;;;;0.30;0.10;;;19.00;53.50;;;;;;5012627;28;20034;-90
2021/12/04 07:43:39;;;;;;;0.47;0.10;;;19.00;53.60;;;;;;5011752;28;20498;-85
2021/12/04 07:46:05;;;;;;;0.65;0.20;;;19.00;53.50;;;;;;5010180;28;20540;-86
2021/12/04 07:48:31;;;;;;;1.38;0.40;;;19.00;53.50;;;;;;5008788;28;20037;-87
2021/12/04 07:50:56;;;;;;;0.60;0.20;;;19.00;53.60;;;;;;5001118;28;20108;-86
2021/12/04 07:53:22;;;;;;;0.50;0.20;;;19.10;53.60;;;;;;5008409;28;20050;-85
2021/12/04 07:55:50;;;;;;;0.80;0.25;;;20.20;54.20;;;;;;5010071;28;20052;-86
2021/12/04 07:58:15;;;;;;;0.98;0.28;;;19.10;53.60;;;;;;5007152;28;20026;-86
2021/12/04 08:00:41;;;;;;;0.70;0.20;;;19.10;53.60;;;;;;5025060;28;20343;-85
2021/12/04 08:03:06;;;;;;;0.50;0.20;;;19.10;53.60;;;;;;5006035;28;20133;-86
2021/12/04 08:05:32;;;;;;;1.20;0.20;;;19.10;53.60;;;;;;4990148;28;20062;-84
2021/12/04 08:07:57;;;;;;;1.05;0.20;;;19.00;53.50;;;;;;4990883;28;20054;-86
2021/12/04 08:10:23;;;;;;;0.50;0.10;;;19.00;53.60;;;;;;5000353;28;20061;-85
2021/12/04 08:12:49;;;;;;;0.50;0.10;;;19.00;53.60;;;;;;4989966;28;20066;-85
2021/12/04 08:15:15;;;;;;;0.40;0.20;;;19.00;53.60;;;;;;4989082;28;20050;-86
2021/12/04 08:17:43;;;;;;;0.60;0.20;;;19.00;53.60;;;;;;4989815;28;20038;-84
2021/12/04 08:20:10;;;;;;;0.55;0.28;;;19.00;53.60;;;;;;4989927;28;20050;-86
2021/12/04 08:22:36;;;;;;;0.60;0.30;;;19.00;53.60;;;;;;4989381;28;20054;-86
2021/12/04 08:25:02;;;;;;;0.32;0.20;;;19.00;53.60;;;;;;4989868;28;20054;-85
2021/12/04 08:27:28;;;;;;;1.25;0.20;;;19.00;53.60;;;;;;4990046;28;20208;-85
2021/12/04 08:29:53;;;;;;;0.40;0.15;;;19.00;53.60;;;;;;4988733;28;20549;-86
2021/12/04 08:32:23;;;;;;;0.95;0.20;;;19.00;53.60;;;;;;4990022;28;20465;-86
2021/12/04 08:34:48;;;;;;;0.75;0.20;;;19.00;53.60;;;;;;4989279;28;20081;-85
2021/12/04 08:37:14;;;;;;;0.95;0.40;;;19.00;53.60;;;;;;4990349;28;20038;-86
2021/12/04 08:39:42;;;;;;;1.02;0.22;;;19.00;53.60;;;;;;4991795;28;20127;-86
2021/12/04 08:42:07;;;;;;;0.55;0.20;;;18.80;53.50;;;;;;5009331;28;20053;-85
2021/12/04 08:44:33;;;;;;;0.52;0.20;;;19.00;53.60;;;;;;5007187;28;20046;-86
2021/12/04 08:46:59;;;;;;;0.73;0.20;;;19.00;53.60;;;;;;5008117;28;20049;-85
2021/12/04 08:49:26;;;;;;;0.47;0.20;;;19.00;53.60;;;;;;5004619;28;20148;-85
2021/12/04 08:51:52;;;;;;;0.43;0.22;;;19.00;53.60;;;;;;4991655;28;20573;-85
2021/12/04 08:54:17;;;;;;;0.82;0.28;;;19.00;53.70;;;;;;4992653;28;20144;-86
2021/12/04 08:56:43;;;;;;;0.68;0.30;;;19.00;53.60;;;;;;5007987;28;20133;-86
2021/12/04 08:59:09;;;;;;;1.10;0.28;;;18.90;53.50;;;;;;5008885;28;20108;-85
2021/12/04 09:01:38;;;;;;;0.60;0.22;;;19.00;53.60;;;;;;5006312;28;20119;-86
2021/12/04 09:04:10;;;;;;;0.43;0.10;;;19.00;53.60;;;;;;5004017;28;20054;-84
2021/12/04 09:06:36;;;;;;;0.57;0.20;;;19.00;53.60;;;;;;4989143;28;20054;-85
2021/12/04 09:09:03;;;;;;;0.70;0.20;;;18.90;53.60;;;;;;4989005;28;20629;-85
2021/12/04 09:11:32;;;;;;;0.77;0.30;;;18.90;53.60;;;;;;4988012;28;20558;-85
2021/12/04 09:13:58;;;;;;;0.90;0.20;;;18.90;53.60;;;;;;4989079;28;20074;-85
2021/12/04 09:16:24;;;;;;;0.35;0.20;;;18.90;53.50;;;;;;5000831;28;20061;-85
2021/12/04 09:18:50;;;;;;;0.88;0.20;;;18.90;53.60;;;;;;5008177;28;20460;-86
2021/12/04 09:21:16;;;;;;;1.15;0.30;;;19.30;53.80;;;;;;5011613;28;20144;-86
2021/12/04 09:23:47;;;;;;;0.70;0.30;;;18.90;53.60;;;;;;4991518;28;20111;-84
2021/12/04 09:26:26;;;;;;;1.30;0.40;;;18.90;53.60;;;;;;5004846;28;20455;-85
2021/12/04 09:29:23;;;;;;;0.90;0.30;;;18.90;53.60;;;;;;5008828;28;20050;-84
2021/12/04 10:11:15;;;;;;;0.70;0.30;;;19.10;53.90;;;;;;5000100;28;20555;-83
2021/12/04 10:12:26;;;;;;;1.90;0.65;;;18.80;53.50;;;;;;4999267;28;21056;-83
2021/12/04 10:17:44;;;;;;;2.03;0.70;;;18.80;53.70;;;;;;4999851;28;20057;-84
2021/12/04 10:20:19;;;;;;;1.80;0.52;;;18.80;53.60;;;;;;5000127;28;20058;-81
2021/12/04 10:23:03;;;;;;;2.17;0.60;;;18.80;53.70;;;;;;5006801;28;20057;-83
2021/12/04 10:33:55;;;;;;;13.90;1.98;;;18.80;53.90;;;;;;4985253;28;20142;-83
2021/12/04 10:36:32;;;;;;;5.43;1.10;;;18.80;54.00;;;;;;4971045;28;20133;-85
2021/12/04 10:38:59;;;;;;;8.63;1.60;;;18.80;54.00;;;;;;4971429;28;20077;-85
2021/12/04 10:41:32;;;;;;;14.20;2.28;;;18.80;54.00;;;;;;4973758;28;20051;-85
2021/12/04 10:44:22;;;;;;;5.82;1.20;;;18.80;54.10;;;;;;4989635;28;20161;-83
2021/12/04 10:47:03;;;;;;;4.20;1.55;;;18.80;54.00;;;;;;4975764;28;20057;-82
2021/12/04 10:50:10;;;;;;;7.38;1.33;;;18.80;53.90;;;;;;4991138;28;20074;-84
2021/12/04 10:55:12;;;;;;;4.75;1.30;;;18.90;53.90;;;;;;4991879;28;20104;-85
2021/12/04 10:58:04;;;;;;;4.07;1.20;;;19.20;54.00;;;;;;4992211;28;20054;-84
2021/12/04 11:00:41;;;;;;;4.68;1.10;;;20.30;54.60;;;;;;4991969;28;20177;-84
2021/12/04 11:35:03;;;;;;;2.58;0.98;;;19.90;54.20;;;;;;4985397;28;20422;-84
2021/12/04 11:37:13;;;;;;;2.33;1.20;;;19.00;53.70;;;;;;4984255;28;20138;-85
2021/12/04 11:40:04;;;;;;;4.32;1.33;;;19.00;53.70;;;;;;4983955;28;20289;-85
2021/12/04 11:42:44;;;;;;;3.95;1.05;;;19.00;53.70;;;;;;4987712;28;20113;-85
2021/12/04 11:45:17;;;;;;;2.95;1.20;;;19.00;53.70;;;;;;4967636;28;20121;-84
2021/12/04 11:47:45;;;;;;;2.30;1.00;;;19.00;53.70;;;;;;4983697;28;20506;-81
2021/12/04 11:50:37;;;;;;;3.60;1.17;;;19.60;54.00;;;;;;4970305;28;20054;-85
2021/12/04 11:53:11;;;;;;;4.15;1.23;;;19.00;53.70;;;;;;4982242;28;20042;-85
2021/12/04 11:55:39;;;;;;;3.55;1.23;;;19.00;53.70;;;;;;4989133;28;20498;-84
2021/12/04 11:58:16;;;;;;;2.28;1.00;;;20.20;54.30;;;;;;4991995;28;20096;-85
2021/12/04 12:00:41;;;;;;;2.80;0.90;;;19.70;54.00;;;;;;4990064;28;20113;-84
2021/12/04 12:03:12;;;;;;;2.20;1.33;;;19.00;53.60;;;;;;4989343;28;20470;-85
2021/12/04 12:05:45;;;;;;;3.35;1.35;;;19.00;53.60;;;;;;4978159;28;20079;-84
2021/12/04 12:08:24;;;;;;;3.47;1.10;;;19.00;53.70;;;;;;4988446;28;20050;-83
2021/12/04 12:10:53;;;;;;;5.32;1.38;;;19.00;53.60;;;;;;4989016;28;20062;-84
2021/12/04 12:13:31;;;;;;;4.07;1.25;;;19.00;53.70;;;;;;4954131;28;1033299;-85
2021/12/04 12:16:03;;;;;;;3.50;1.23;;;19.00;54.30;;;;;;4988494;28;20055;-88
2021/12/04 12:18:29;;;;;;;2.63;1.10;;;19.00;53.60;;;;;;4990073;28;20332;-87
2021/12/04 12:20:58;;;;;;;2.42;1.15;;;19.00;53.60;;;;;;4972618;28;20086;-83
2021/12/04 12:23:28;;;;;;;3.53;1.35;;;19.00;53.60;;;;;;4990836;28;20062;-88
2021/12/04 12:26:13;;;;;;;5.00;1.35;;;19.00;53.70;;;;;;4975698;28;20069;-87
2021/12/04 12:34:27;;;;;;;2.65;1.30;;;19.40;53.90;;;;;;4990958;28;20054;-88
2021/12/04 12:36:53;;;;;;;4.20;1.25;;;19.80;54.10;;;;;;4987932;28;20062;-86
2021/12/04 12:39:18;;;;;;;2.45;1.13;;;19.00;53.60;;;;;;4972710;28;20617;-85
2021/12/04 12:41:47;;;;;;;2.53;1.23;;;19.00;53.70;;;;;;4988619;28;20551;-86
2021/12/04 12:44:19;;;;;;;3.40;1.20;;;19.00;53.60;;;;;;4988675;28;20137;-86
2021/12/04 12:46:56;;;;;;;4.97;1.48;;;19.00;53.60;;;;;;4981952;28;20053;-87
2021/12/04 12:49:28;;;;;;;3.45;1.20;;;19.00;53.70;;;;;;4976785;28;20529;-84
2021/12/04 12:52:04;;;;;;;3.95;1.40;;;19.00;53.60;;;;;;4990231;28;20093;-85
2021/12/04 12:54:35;;;;;;;4.80;1.70;;;19.10;53.70;;;;;;4979156;28;20486;-86
2021/12/04 12:57:35;;;;;;;3.75;1.60;;;19.10;53.70;;;;;;4966368;28;20092;-85
2021/12/04 13:13:52;;;;;;;4.13;1.80;;;19.10;53.80;;;;;;4988680;28;20050;-85
2021/12/04 13:16:20;;;;;;;6.78;2.00;;;19.10;53.80;;;;;;4989488;28;20066;-85
2021/12/04 13:18:56;;;;;;;4.68;2.03;;;19.10;53.80;;;;;;4987018;28;20042;-85
2021/12/04 13:21:22;;;;;;;4.70;2.40;;;19.10;53.80;;;;;;4988439;28;20054;-84
2021/12/04 13:23:49;;;;;;;6.15;2.92;;;19.10;53.70;;;;;;4988406;28;20600;-86
2021/12/04 13:26:15;;;;;;;7.53;4.25;;;19.10;53.60;;;;;;4967975;28;20105;-85
2021/12/04 13:28:43;;;;;;;8.07;4.40;;;20.10;54.00;;;;;;4952889;28;20833;-85
2021/12/04 13:31:09;;;;;;;6.97;3.90;;;19.10;53.40;;;;;;4974507;28;20046;-85
2021/12/04 13:33:37;;;;;;;7.15;3.35;;;19.10;53.40;;;;;;4986790;28;20057;-85
2021/12/04 13:36:04;;;;;;;6.30;3.42;;;19.20;53.40;;;;;;4987520;28;20075;-85
2021/12/04 13:38:29;;;;;;;7.30;3.25;;;19.10;53.40;;;;;;4971481;28;20046;-85
2021/12/04 13:40:55;;;;;;;7.93;3.38;;;19.10;53.30;;;;;;4989551;28;20133;-90
2021/12/04 13:43:21;;;;;;;6.32;3.15;;;19.10;53.40;;;;;;4990075;28;20050;-90
2021/12/04 13:45:58;;;;;;;5.88;3.42;;;19.10;53.30;;;;;;4988629;28;20047;-89
2021/12/04 13:48:24;;;;;;;5.60;2.90;;;19.10;53.20;;;;;;4989088;28;20050;-89
2021/12/04 13:50:49;;;;;;;5.88;3.22;;;19.10;53.30;;;;;;4988531;28;20061;-88
2021/12/04 13:53:30;;;;;;;6.68;2.90;;;19.30;53.40;;;;;;4988367;28;20046;-88
2021/12/04 13:55:59;;;;;;;13.55;3.85;;;19.10;53.20;;;;;;5001079;28;20124;-85
2021/12/04 13:58:39;;;;;;;7.13;2.95;;;19.10;53.30;;;;;;5009317;28;20041;-89
2021/12/04 14:01:14;;;;;;;5.82;2.92;;;19.10;53.70;;;;;;5006978;28;20104;-81
2021/12/04 14:03:43;;;;;;;7.30;2.85;;;19.70;53.70;;;;;;5006691;28;20045;-82
2021/12/04 14:06:13;;;;;;;5.43;2.50;;;18.70;53.00;;;;;;5006623;28;20045;-81
2021/12/04 14:08:39;;;;;;;11.40;2.88;;;19.10;53.20;;;;;;5007784;28;20046;-80
2021/12/04 14:11:04;;;;;;;10.80;3.08;;;19.10;53.40;;;;;;5007680;28;20061;-83
2021/12/04 14:13:30;;;;;;;9.60;3.30;;;19.10;53.40;;;;;;5004709;28;20058;-83
2021/12/04 14:15:56;;;;;;;5.47;3.13;;;19.10;53.40;;;;;;5010154;28;20062;-82
2021/12/04 14:18:22;;;;;;;6.60;3.58;;;19.20;53.40;;;;;;5011028;28;20058;-83
2021/12/04 14:20:50;;;;;;;7.53;3.28;;;19.20;53.40;;;;;;5010549;28;20042;-83
2021/12/04 14:23:28;;;;;;;6.57;3.55;;;19.20;53.40;;;;;;5007301;28;20677;-83
2021/12/04 14:26:02;;;;;;;7.22;3.33;;;18.80;53.10;;;;;;5009803;28;20527;-83
2021/12/04 14:28:43;;;;;;;7.20;3.05;;;18.10;53.40;;;;;;5023059;28;20068;-83
2021/12/04 14:31:10;;;;;;;8.77;3.03;;;18.80;53.30;;;;;;5014311;28;20631;-85
2021/12/04 14:33:36;;;;;;;8.18;2.92;;;18.80;53.00;;;;;;5010512;28;20533;-84
2021/12/04 14:36:03;;;;;;;6.50;3.13;;;20.90;54.20;;;;;;5006015;28;20049;-83
2021/12/04 14:38:30;;;;;;;6.22;2.60;;;19.30;53.30;;;;;;4997409;28;20042;-83
2021/12/04 14:40:59;;;;;;;8.38;3.13;;;19.30;53.40;;;;;;4985602;28;20534;-83
2021/12/04 14:43:26;;;;;;;6.07;2.85;;;20.70;54.10;;;;;;4990235;28;20057;-83
2021/12/04 14:45:55;;;;;;;6.18;2.88;;;19.60;53.30;;;;;;4987967;28;20063;-82
2021/12/04 14:48:28;;;;;;;6.72;2.85;;;20.20;53.60;;;;;;4990043;28;20525;-82
2021/12/04 14:51:04;;;;;;;7.28;2.75;;;19.40;53.10;;;;;;4990386;28;20043;-82
2021/12/04 14:53:30;;;;;;;5.80;2.88;;;19.40;53.20;;;;;;4976590;28;20121;-86
2021/12/04 14:55:55;;;;;;;7.35;2.88;;;19.40;53.20;;;;;;4989291;28;20137;-90
2021/12/04 14:58:23;;;;;;;5.13;2.53;;;19.40;53.10;;;;;;4990698;28;20046;-88
2021/12/04 15:00:58;;;;;;;5.13;2.90;;;19.40;53.10;;;;;;4975205;28;20122;-89
2021/12/04 15:03:33;;;;;;;5.78;2.50;;;19.50;53.70;;;;;;4970065;28;20109;-86
2021/12/04 15:06:01;;;;;;;5.18;2.92;;;19.50;53.10;;;;;;4971006;28;20055;-88
2021/12/04 15:08:32;;;;;;;4.15;2.40;;;19.50;53.00;;;;;;4955185;28;20069;-89
2021/12/04 15:11:00;;;;;;;8.48;2.80;;;19.50;53.00;;;;;;4970381;28;20414;-85
2021/12/04 15:13:29;;;;;;;5.32;2.70;;;19.60;53.00;;;;;;4977119;28;20560;-85
2021/12/04 15:15:58;;;;;;;6.55;2.60;;;20.50;53.40;;;;;;4979167;28;20054;-90
2021/12/04 15:18:25;;;;;;;6.32;2.60;;;20.20;53.40;;;;;;4985244;28;20054;-90
2021/12/04 15:21:03;;;;;;;5.38;2.38;;;19.60;53.00;;;;;;4987975;28;20046;-91
2021/12/04 15:23:30;;;;;;;6.63;2.70;;;19.60;53.00;;;;;;4937794;28;20046;-90
2021/12/04 15:26:17;;;;;;;7.35;2.67;;;19.90;53.20;;;;;;4965979;28;20081;-90
2021/12/04 15:29:01;;;;;;;7.43;2.08;;;21.00;53.70;;;;;;4934585;28;20084;-88
2021/12/04 15:31:27;;;;;;;5.35;2.38;;;19.60;53.00;;;;;;5006315;28;20481;-88
2021/12/04 15:33:55;;;;;;;6.68;2.65;;;19.60;52.90;;;;;;4974168;28;20054;-91
2021/12/04 15:36:25;;;;;;;5.68;2.88;;;19.70;52.90;;;;;;4975048;28;20120;-88